Terminal Aerodrome Forecast
Issued by NWS Chicago, IL

Home | Current Version | Previous Version | Text Only | Print | Product List | Glossary Off
Versions: 1 2 3 4 5 6 7 8 9 10 11 12 13 14 15 16 17 18 19 20 21 22 23 24 25 26 27 28 29 30 31 32 33

875
FTUS43 KLOT 201724
TAFRFD
TAF
KRFD 201724Z 2018/2118 12005KT 3SM BR OVC004
     FM210200 12006KT 1SM -DZ BR VCSH OVC003
     FM211400 16010KT 3SM BR OVC006=

USA.gov is the U.S. government's official web portal to all federal, state and local government web resources and services.